sensor_id;sensor_type;location;lat;lon;timestamp;P1;durP1;ratioP1;P2;durP2;ratioP2
54201;SDS011;40108;53.152;5.844;2023-05-10T00:01:05;20.83;;;15.88;;
54201;SDS011;40108;53.152;5.844;2023-05-10T00:03:31;18.35;;;15.70;;
54201;SDS011;40108;53.152;5.844;2023-05-10T00:05:57;21.63;;;15.88;;
54201;SDS011;40108;53.152;5.844;2023-05-10T00:08:22;16.77;;;14.02;;
54201;SDS011;40108;53.152;5.844;2023-05-10T00:10:48;14.20;;;12.80;;
54201;SDS011;40108;53.152;5.844;2023-05-10T00:13:14;11.50;;;10.43;;
54201;SDS011;40108;53.152;5.844;2023-05-10T00:15:40;10.02;;;9.15;;
54201;SDS011;40108;53.152;5.844;2023-05-10T00:18:06;8.68;;;7.78;;
54201;SDS011;40108;53.152;5.844;2023-05-10T00:20:31;7.47;;;6.88;;
54201;SDS011;40108;53.152;5.844;2023-05-10T00:22:57;7.25;;;6.60;;
54201;SDS011;40108;53.152;5.844;2023-05-10T00:25:23;6.63;;;6.03;;
54201;SDS011;40108;53.152;5.844;2023-05-10T00:27:49;7.60;;;6.40;;
54201;SDS011;40108;53.152;5.844;2023-05-10T00:30:14;7.80;;;7.00;;
54201;SDS011;40108;53.152;5.844;2023-05-10T00:32:40;7.53;;;6.82;;
54201;SDS011;40108;53.152;5.844;2023-05-10T00:35:06;8.50;;;7.70;;
54201;SDS011;40108;53.152;5.844;2023-05-10T00:37:32;10.00;;;8.85;;
54201;SDS011;40108;53.152;5.844;2023-05-10T00:39:58;10.48;;;9.48;;
54201;SDS011;40108;53.152;5.844;2023-05-10T00:42:24;11.25;;;10.00;;
54201;SDS011;40108;53.152;5.844;2023-05-10T00:44:50;13.13;;;11.25;;
54201;SDS011;40108;53.152;5.844;2023-05-10T00:47:16;14.88;;;12.98;;
54201;SDS011;40108;53.152;5.844;2023-05-10T00:49:42;15.80;;;12.98;;
54201;SDS011;40108;53.152;5.844;2023-05-10T00:52:08;17.30;;;14.68;;
54201;SDS011;40108;53.152;5.844;2023-05-10T00:54:34;22.15;;;16.45;;
54201;SDS011;40108;53.152;5.844;2023-05-10T00:57:01;23.83;;;17.55;;
54201;SDS011;40108;53.152;5.844;2023-05-10T00:59:26;22.83;;;17.45;;
54201;SDS011;40108;53.152;5.844;2023-05-10T01:01:53;22.77;;;18.38;;
54201;SDS011;40108;53.152;5.844;2023-05-10T01:04:19;29.08;;;20.15;;
54201;SDS011;40108;53.152;5.844;2023-05-10T01:06:50;33.05;;;23.13;;
54201;SDS011;40108;53.152;5.844;2023-05-10T01:09:16;38.50;;;24.88;;
54201;SDS011;40108;53.152;5.844;2023-05-10T01:11:43;35.53;;;24.20;;
54201;SDS011;40108;53.152;5.844;2023-05-10T01:14:09;39.63;;;26.33;;
54201;SDS011;40108;53.152;5.844;2023-05-10T01:16:38;43.05;;;27.10;;
54201;SDS011;40108;53.152;5.844;2023-05-10T01:19:10;37.42;;;25.45;;
54201;SDS011;40108;53.152;5.844;2023-05-10T01:30:35;35.13;;;26.85;;
54201;SDS011;40108;53.152;5.844;2023-05-10T01:41:28;43.25;;;30.17;;
54201;SDS011;40108;53.152;5.844;2023-05-10T01:49:45;66.97;;;34.83;;
54201;SDS011;40108;53.152;5.844;2023-05-10T01:52:22;59.53;;;33.00;;
54201;SDS011;40108;53.152;5.844;2023-05-10T01:54:56;68.05;;;33.17;;
54201;SDS011;40108;53.152;5.844;2023-05-10T01:57:27;71.17;;;34.43;;
54201;SDS011;40108;53.152;5.844;2023-05-10T01:59:58;84.30;;;34.47;;
54201;SDS011;40108;53.152;5.844;2023-05-10T02:02:26;96.38;;;36.40;;
54201;SDS011;40108;53.152;5.844;2023-05-10T02:04:53;104.80;;;37.03;;
54201;SDS011;40108;53.152;5.844;2023-05-10T02:07:20;96.13;;;36.47;;
54201;SDS011;40108;53.152;5.844;2023-05-10T02:09:47;81.13;;;36.00;;
54201;SDS011;40108;53.152;5.844;2023-05-10T02:12:13;75.88;;;33.30;;
54201;SDS011;40108;53.152;5.844;2023-05-10T02:14:41;66.22;;;32.05;;
54201;SDS011;40108;53.152;5.844;2023-05-10T02:17:07;71.85;;;30.25;;
54201;SDS011;40108;53.152;5.844;2023-05-10T02:19:35;79.82;;;30.67;;
54201;SDS011;40108;53.152;5.844;2023-05-10T02:22:03;82.60;;;31.65;;
54201;SDS011;40108;53.152;5.844;2023-05-10T02:24:30;72.40;;;30.35;;
54201;SDS011;40108;53.152;5.844;2023-05-10T02:26:58;81.93;;;32.03;;
54201;SDS011;40108;53.152;5.844;2023-05-10T02:29:27;64.82;;;29.30;;
54201;SDS011;40108;53.152;5.844;2023-05-10T02:31:54;62.80;;;29.23;;
54201;SDS011;40108;53.152;5.844;2023-05-10T02:34:27;48.05;;;26.85;;
54201;SDS011;40108;53.152;5.844;2023-05-10T02:36:53;51.10;;;29.15;;
54201;SDS011;40108;53.152;5.844;2023-05-10T02:39:21;52.70;;;26.65;;
54201;SDS011;40108;53.152;5.844;2023-05-10T02:41:49;45.08;;;26.98;;
54201;SDS011;40108;53.152;5.844;2023-05-10T02:44:17;48.72;;;25.75;;
54201;SDS011;40108;53.152;5.844;2023-05-10T02:46:45;36.17;;;23.58;;
54201;SDS011;40108;53.152;5.844;2023-05-10T02:49:11;36.33;;;24.23;;
54201;SDS011;40108;53.152;5.844;2023-05-10T02:51:40;33.05;;;22.73;;
54201;SDS011;40108;53.152;5.844;2023-05-10T02:54:10;27.88;;;20.55;;
54201;SDS011;40108;53.152;5.844;2023-05-10T02:56:45;25.63;;;18.92;;
54201;SDS011;40108;53.152;5.844;2023-05-10T02:59:15;23.10;;;17.95;;
54201;SDS011;40108;53.152;5.844;2023-05-10T03:01:41;21.23;;;17.27;;
54201;SDS011;40108;53.152;5.844;2023-05-10T03:04:07;22.55;;;16.45;;
54201;SDS011;40108;53.152;5.844;2023-05-10T03:06:32;14.80;;;13.15;;
54201;SDS011;40108;53.152;5.844;2023-05-10T03:08:58;10.80;;;9.75;;
54201;SDS011;40108;53.152;5.844;2023-05-10T03:16:47;5.40;;;4.90;;
54201;SDS011;40108;53.152;5.844;2023-05-10T03:19:27;4.38;;;3.97;;
54201;SDS011;40108;53.152;5.844;2023-05-10T03:21:58;3.90;;;3.60;;
54201;SDS011;40108;53.152;5.844;2023-05-10T03:24:27;4.15;;;3.83;;
54201;SDS011;40108;53.152;5.844;2023-05-10T03:26:55;3.90;;;3.60;;
54201;SDS011;40108;53.152;5.844;2023-05-10T03:29:22;4.45;;;3.00;;
54201;SDS011;40108;53.152;5.844;2023-05-10T03:31:50;2.72;;;2.63;;
54201;SDS011;40108;53.152;5.844;2023-05-10T03:34:16;2.92;;;2.72;;
54201;SDS011;40108;53.152;5.844;2023-05-10T03:36:47;2.70;;;2.60;;
54201;SDS011;40108;53.152;5.844;2023-05-10T03:39:13;1.85;;;1.75;;
54201;SDS011;40108;53.152;5.844;2023-05-10T03:41:39;1.70;;;1.60;;
54201;SDS011;40108;53.152;5.844;2023-05-10T03:44:05;1.60;;;1.50;;
54201;SDS011;40108;53.152;5.844;2023-05-10T03:46:30;2.00;;;1.80;;
54201;SDS011;40108;53.152;5.844;2023-05-10T03:48:56;2.45;;;2.25;;
54201;SDS011;40108;53.152;5.844;2023-05-10T03:51:22;2.20;;;2.10;;
54201;SDS011;40108;53.152;5.844;2023-05-10T03:53:47;1.92;;;1.83;;
54201;SDS011;40108;53.152;5.844;2023-05-10T03:56:13;1.80;;;1.70;;
54201;SDS011;40108;53.152;5.844;2023-05-10T03:58:39;2.58;;;1.80;;
54201;SDS011;40108;53.152;5.844;2023-05-10T04:01:04;1.67;;;1.58;;
54201;SDS011;40108;53.152;5.844;2023-05-10T04:03:30;1.45;;;1.38;;
54201;SDS011;40108;53.152;5.844;2023-05-10T04:05:59;1.63;;;1.52;;
54201;SDS011;40108;53.152;5.844;2023-05-10T04:08:26;1.90;;;1.80;;
54201;SDS011;40108;53.152;5.844;2023-05-10T04:10:52;1.88;;;1.77;;
54201;SDS011;40108;53.152;5.844;2023-05-10T04:13:18;2.20;;;2.10;;
54201;SDS011;40108;53.152;5.844;2023-05-10T04:15:44;2.28;;;2.15;;
54201;SDS011;40108;53.152;5.844;2023-05-10T04:18:09;3.00;;;2.67;;
54201;SDS011;40108;53.152;5.844;2023-05-10T04:20:35;2.65;;;2.47;;
54201;SDS011;40108;53.152;5.844;2023-05-10T04:23:01;2.50;;;2.30;;
54201;SDS011;40108;53.152;5.844;2023-05-10T04:25:26;2.45;;;2.25;;
54201;SDS011;40108;53.152;5.844;2023-05-10T04:27:52;2.72;;;2.47;;
54201;SDS011;40108;53.152;5.844;2023-05-10T04:30:18;2.85;;;2.65;;
54201;SDS011;40108;53.152;5.844;2023-05-10T04:32:44;1.90;;;1.80;;
54201;SDS011;40108;53.152;5.844;2023-05-10T04:35:09;2.63;;;2.42;;
54201;SDS011;40108;53.152;5.844;2023-05-10T04:37:35;2.58;;;2.38;;
54201;SDS011;40108;53.152;5.844;2023-05-10T04:40:01;2.72;;;2.60;;
54201;SDS011;40108;53.152;5.844;2023-05-10T04:42:28;3.45;;;3.25;;
54201;SDS011;40108;53.152;5.844;2023-05-10T04:44:54;3.67;;;3.38;;
54201;SDS011;40108;53.152;5.844;2023-05-10T04:47:19;3.47;;;3.17;;
54201;SDS011;40108;53.152;5.844;2023-05-10T04:49:45;4.43;;;4.03;;
54201;SDS011;40108;53.152;5.844;2023-05-10T04:52:11;5.68;;;5.18;;
54201;SDS011;40108;53.152;5.844;2023-05-10T04:54:37;8.05;;;6.32;;
54201;SDS011;40108;53.152;5.844;2023-05-10T04:57:02;6.72;;;5.90;;
54201;SDS011;40108;53.152;5.844;2023-05-10T04:59:28;7.72;;;6.93;;
54201;SDS011;40108;53.152;5.844;2023-05-10T05:01:54;8.32;;;7.28;;
54201;SDS011;40108;53.152;5.844;2023-05-10T05:04:20;8.10;;;7.32;;
54201;SDS011;40108;53.152;5.844;2023-05-10T05:06:47;8.40;;;7.60;;
54201;SDS011;40108;53.152;5.844;2023-05-10T05:09:13;9.32;;;8.38;;
54201;SDS011;40108;53.152;5.844;2023-05-10T05:11:39;9.75;;;8.85;;
54201;SDS011;40108;53.152;5.844;2023-05-10T05:14:05;12.75;;;9.15;;
54201;SDS011;40108;53.152;5.844;2023-05-10T05:16:31;9.75;;;8.75;;
54201;SDS011;40108;53.152;5.844;2023-05-10T05:18:57;9.45;;;8.38;;
54201;SDS011;40108;53.152;5.844;2023-05-10T05:21:22;10.18;;;7.82;;
54201;SDS011;40108;53.152;5.844;2023-05-10T05:23:52;10.35;;;7.70;;
54201;SDS011;40108;53.152;5.844;2023-05-10T05:26:20;9.27;;;6.97;;
54201;SDS011;40108;53.152;5.844;2023-05-10T05:28:46;6.72;;;5.47;;
54201;SDS011;40108;53.152;5.844;2023-05-10T05:31:13;6.25;;;5.47;;
54201;SDS011;40108;53.152;5.844;2023-05-10T05:33:39;6.57;;;5.95;;
54201;SDS011;40108;53.152;5.844;2023-05-10T05:36:05;7.07;;;5.68;;
54201;SDS011;40108;53.152;5.844;2023-05-10T05:38:31;22.23;;;14.57;;
54201;SDS011;40108;53.152;5.844;2023-05-10T05:40:57;42.28;;;23.02;;
54201;SDS011;40108;53.152;5.844;2023-05-10T05:43:23;6.00;;;5.40;;
54201;SDS011;40108;53.152;5.844;2023-05-10T05:45:49;7.60;;;4.85;;
54201;SDS011;40108;53.152;5.844;2023-05-10T05:48:14;5.80;;;4.78;;
54201;SDS011;40108;53.152;5.844;2023-05-10T05:50:40;9.10;;;5.30;;
54201;SDS011;40108;53.152;5.844;2023-05-10T05:53:06;5.63;;;5.03;;
54201;SDS011;40108;53.152;5.844;2023-05-10T05:55:31;6.47;;;5.57;;
54201;SDS011;40108;53.152;5.844;2023-05-10T05:57:57;7.60;;;6.53;;
54201;SDS011;40108;53.152;5.844;2023-05-10T06:00:23;7.88;;;6.70;;
54201;SDS011;40108;53.152;5.844;2023-05-10T06:02:49;9.95;;;7.60;;
54201;SDS011;40108;53.152;5.844;2023-05-10T06:05:15;10.57;;;6.85;;
54201;SDS011;40108;53.152;5.844;2023-05-10T06:07:40;7.90;;;6.85;;
54201;SDS011;40108;53.152;5.844;2023-05-10T06:10:09;9.65;;;6.97;;
54201;SDS011;40108;53.152;5.844;2023-05-10T06:12:35;9.90;;;6.70;;
54201;SDS011;40108;53.152;5.844;2023-05-10T06:15:01;7.72;;;6.65;;
54201;SDS011;40108;53.152;5.844;2023-05-10T06:17:27;10.95;;;6.22;;
54201;SDS011;40108;53.152;5.844;2023-05-10T06:19:58;8.90;;;6.25;;
54201;SDS011;40108;53.152;5.844;2023-05-10T06:22:27;8.45;;;5.97;;
54201;SDS011;40108;53.152;5.844;2023-05-10T06:24:53;10.73;;;6.97;;
54201;SDS011;40108;53.152;5.844;2023-05-10T06:27:21;10.68;;;7.90;;
54201;SDS011;40108;53.152;5.844;2023-05-10T06:29:47;12.10;;;8.05;;
54201;SDS011;40108;53.152;5.844;2023-05-10T06:32:12;8.85;;;6.20;;
54201;SDS011;40108;53.152;5.844;2023-05-10T06:34:38;12.02;;;6.38;;
54201;SDS011;40108;53.152;5.844;2023-05-10T06:37:04;8.10;;;6.65;;
54201;SDS011;40108;53.152;5.844;2023-05-10T06:39:29;12.85;;;9.80;;
54201;SDS011;40108;53.152;5.844;2023-05-10T06:41:55;16.60;;;10.77;;
54201;SDS011;40108;53.152;5.844;2023-05-10T06:44:21;12.55;;;9.88;;
54201;SDS011;40108;53.152;5.844;2023-05-10T06:46:47;11.68;;;8.52;;
54201;SDS011;40108;53.152;5.844;2023-05-10T06:49:12;12.27;;;7.50;;
54201;SDS011;40108;53.152;5.844;2023-05-10T06:51:38;9.93;;;7.10;;
54201;SDS011;40108;53.152;5.844;2023-05-10T06:54:05;13.63;;;7.50;;
54201;SDS011;40108;53.152;5.844;2023-05-10T06:56:31;13.30;;;7.68;;
54201;SDS011;40108;53.152;5.844;2023-05-10T06:58:57;15.60;;;7.80;;
54201;SDS011;40108;53.152;5.844;2023-05-10T07:01:23;17.15;;;8.15;;
54201;SDS011;40108;53.152;5.844;2023-05-10T07:03:49;21.38;;;9.07;;
54201;SDS011;40108;53.152;5.844;2023-05-10T07:06:15;16.70;;;8.60;;
54201;SDS011;40108;53.152;5.844;2023-05-10T07:08:41;17.60;;;8.82;;
54201;SDS011;40108;53.152;5.844;2023-05-10T07:11:07;17.58;;;8.32;;
54201;SDS011;40108;53.152;5.844;2023-05-10T07:13:33;16.13;;;8.50;;
54201;SDS011;40108;53.152;5.844;2023-05-10T07:15:59;15.75;;;8.25;;
54201;SDS011;40108;53.152;5.844;2023-05-10T07:18:27;9.23;;;7.03;;
54201;SDS011;40108;53.152;5.844;2023-05-10T07:20:52;14.52;;;6.85;;
54201;SDS011;40108;53.152;5.844;2023-05-10T07:23:18;9.43;;;5.97;;
54201;SDS011;40108;53.152;5.844;2023-05-10T07:25:45;11.15;;;6.63;;
54201;SDS011;40108;53.152;5.844;2023-05-10T07:28:11;11.23;;;5.70;;
54201;SDS011;40108;53.152;5.844;2023-05-10T07:30:37;12.05;;;5.93;;
54201;SDS011;40108;53.152;5.844;2023-05-10T07:33:03;9.48;;;5.88;;
54201;SDS011;40108;53.152;5.844;2023-05-10T07:35:28;12.43;;;5.97;;
54201;SDS011;40108;53.152;5.844;2023-05-10T07:37:54;10.68;;;6.00;;
54201;SDS011;40108;53.152;5.844;2023-05-10T07:40:20;9.52;;;6.32;;
54201;SDS011;40108;53.152;5.844;2023-05-10T07:42:46;9.20;;;5.88;;
54201;SDS011;40108;53.152;5.844;2023-05-10T07:45:11;8.35;;;6.03;;
54201;SDS011;40108;53.152;5.844;2023-05-10T07:47:37;10.60;;;6.63;;
54201;SDS011;40108;53.152;5.844;2023-05-10T07:50:03;10.75;;;6.78;;
54201;SDS011;40108;53.152;5.844;2023-05-10T07:52:29;10.52;;;7.15;;
54201;SDS011;40108;53.152;5.844;2023-05-10T07:54:54;11.63;;;7.35;;
54201;SDS011;40108;53.152;5.844;2023-05-10T07:57:21;10.55;;;7.53;;
54201;SDS011;40108;53.152;5.844;2023-05-10T07:59:47;11.25;;;8.30;;
54201;SDS011;40108;53.152;5.844;2023-05-10T08:02:13;11.65;;;8.77;;
54201;SDS011;40108;53.152;5.844;2023-05-10T08:04:39;12.50;;;8.38;;
54201;SDS011;40108;53.152;5.844;2023-05-10T08:07:04;11.75;;;8.40;;
54201;SDS011;40108;53.152;5.844;2023-05-10T08:09:30;13.95;;;9.20;;
54201;SDS011;40108;53.152;5.844;2023-05-10T08:11:56;14.95;;;9.05;;
54201;SDS011;40108;53.152;5.844;2023-05-10T08:14:21;11.88;;;8.88;;
54201;SDS011;40108;53.152;5.844;2023-05-10T08:16:47;14.68;;;8.93;;
54201;SDS011;40108;53.152;5.844;2023-05-10T08:19:13;12.57;;;8.80;;
54201;SDS011;40108;53.152;5.844;2023-05-10T08:21:38;11.98;;;8.13;;
54201;SDS011;40108;53.152;5.844;2023-05-10T08:24:07;8.73;;;7.82;;
54201;SDS011;40108;53.152;5.844;2023-05-10T08:26:33;10.32;;;7.55;;
54201;SDS011;40108;53.152;5.844;2023-05-10T08:28:59;10.90;;;7.90;;
54201;SDS011;40108;53.152;5.844;2023-05-10T08:31:24;10.07;;;8.05;;
54201;SDS011;40108;53.152;5.844;2023-05-10T08:33:50;18.45;;;9.00;;
54201;SDS011;40108;53.152;5.844;2023-05-10T08:36:17;12.63;;;7.25;;
54201;SDS011;40108;53.152;5.844;2023-05-10T08:38:47;10.93;;;7.07;;
54201;SDS011;40108;53.152;5.844;2023-05-10T08:41:15;9.07;;;7.05;;
54201;SDS011;40108;53.152;5.844;2023-05-10T08:43:41;10.30;;;7.55;;
54201;SDS011;40108;53.152;5.844;2023-05-10T08:46:11;11.82;;;7.22;;
54201;SDS011;40108;53.152;5.844;2023-05-10T08:48:42;13.13;;;7.60;;
54201;SDS011;40108;53.152;5.844;2023-05-10T08:51:09;10.73;;;8.43;;
54201;SDS011;40108;53.152;5.844;2023-05-10T08:53:39;12.32;;;8.48;;
54201;SDS011;40108;53.152;5.844;2023-05-10T08:56:05;11.73;;;8.38;;
54201;SDS011;40108;53.152;5.844;2023-05-10T08:58:31;13.18;;;9.20;;
54201;SDS011;40108;53.152;5.844;2023-05-10T09:00:57;11.57;;;9.27;;
54201;SDS011;40108;53.152;5.844;2023-05-10T09:03:24;14.00;;;10.02;;
54201;SDS011;40108;53.152;5.844;2023-05-10T09:05:50;15.00;;;10.60;;
54201;SDS011;40108;53.152;5.844;2023-05-10T09:08:16;14.68;;;10.10;;
54201;SDS011;40108;53.152;5.844;2023-05-10T09:10:43;16.75;;;10.65;;
54201;SDS011;40108;53.152;5.844;2023-05-10T09:13:09;16.63;;;11.40;;
54201;SDS011;40108;53.152;5.844;2023-05-10T09:15:40;18.27;;;11.65;;
54201;SDS011;40108;53.152;5.844;2023-05-10T09:18:06;17.98;;;11.55;;
54201;SDS011;40108;53.152;5.844;2023-05-10T09:20:32;16.88;;;12.55;;
54201;SDS011;40108;53.152;5.844;2023-05-10T09:22:57;13.55;;;11.15;;
54201;SDS011;40108;53.152;5.844;2023-05-10T09:25:23;12.73;;;10.38;;
54201;SDS011;40108;53.152;5.844;2023-05-10T09:27:49;12.18;;;9.68;;
54201;SDS011;40108;53.152;5.844;2023-05-10T09:30:16;13.57;;;10.73;;
54201;SDS011;40108;53.152;5.844;2023-05-10T09:32:48;15.32;;;11.40;;
54201;SDS011;40108;53.152;5.844;2023-05-10T09:35:14;15.20;;;11.18;;
54201;SDS011;40108;53.152;5.844;2023-05-10T09:37:45;16.98;;;11.63;;
54201;SDS011;40108;53.152;5.844;2023-05-10T09:40:15;15.60;;;11.98;;
54201;SDS011;40108;53.152;5.844;2023-05-10T09:42:42;16.30;;;11.98;;
54201;SDS011;40108;53.152;5.844;2023-05-10T09:45:15;16.17;;;10.57;;
54201;SDS011;40108;53.152;5.844;2023-05-10T09:47:41;14.98;;;11.50;;
54201;SDS011;40108;53.152;5.844;2023-05-10T09:50:07;14.10;;;10.20;;
54201;SDS011;40108;53.152;5.844;2023-05-10T09:55:14;12.35;;;10.20;;
54201;SDS011;40108;53.152;5.844;2023-05-10T09:57:41;16.52;;;9.73;;
54201;SDS011;40108;53.152;5.844;2023-05-10T10:00:07;13.80;;;9.90;;
54201;SDS011;40108;53.152;5.844;2023-05-10T10:02:35;12.75;;;9.75;;
54201;SDS011;40108;53.152;5.844;2023-05-10T10:05:01;11.90;;;8.55;;
54201;SDS011;40108;53.152;5.844;2023-05-10T10:07:28;11.45;;;8.77;;
54201;SDS011;40108;53.152;5.844;2023-05-10T10:09:54;12.55;;;9.07;;
54201;SDS011;40108;53.152;5.844;2023-05-10T10:12:20;10.38;;;8.02;;
54201;SDS011;40108;53.152;5.844;2023-05-10T10:14:49;10.60;;;8.38;;
54201;SDS011;40108;53.152;5.844;2023-05-10T10:17:16;9.18;;;7.70;;
54201;SDS011;40108;53.152;5.844;2023-05-10T10:19:42;10.82;;;7.97;;
54201;SDS011;40108;53.152;5.844;2023-05-10T10:22:09;12.93;;;8.50;;
54201;SDS011;40108;53.152;5.844;2023-05-10T10:24:37;11.20;;;9.00;;
54201;SDS011;40108;53.152;5.844;2023-05-10T10:27:19;13.55;;;10.13;;
54201;SDS011;40108;53.152;5.844;2023-05-10T10:29:52;12.23;;;10.32;;
54201;SDS011;40108;53.152;5.844;2023-05-10T10:32:27;10.90;;;9.68;;
54201;SDS011;40108;53.152;5.844;2023-05-10T10:35:21;12.10;;;10.05;;
54201;SDS011;40108;53.152;5.844;2023-05-10T10:37:47;12.23;;;9.68;;
54201;SDS011;40108;53.152;5.844;2023-05-10T10:40:32;11.57;;;10.05;;
54201;SDS011;40108;53.152;5.844;2023-05-10T10:43:20;10.57;;;8.85;;
54201;SDS011;40108;53.152;5.844;2023-05-10T10:48:37;11.30;;;9.38;;
54201;SDS011;40108;53.152;5.844;2023-05-10T10:51:03;11.15;;;9.30;;
54201;SDS011;40108;53.152;5.844;2023-05-10T10:53:29;13.55;;;11.00;;
54201;SDS011;40108;53.152;5.844;2023-05-10T10:56:04;14.77;;;11.20;;
54201;SDS011;40108;53.152;5.844;2023-05-10T10:58:36;13.65;;;10.02;;
54201;SDS011;40108;53.152;5.844;2023-05-10T11:01:12;14.15;;;10.20;;
54201;SDS011;40108;53.152;5.844;2023-05-10T11:03:40;12.80;;;10.45;;
54201;SDS011;40108;53.152;5.844;2023-05-10T11:06:29;12.07;;;9.68;;
54201;SDS011;40108;53.152;5.844;2023-05-10T11:08:58;11.25;;;9.00;;
54201;SDS011;40108;53.152;5.844;2023-05-10T11:11:30;13.50;;;10.60;;
54201;SDS011;40108;53.152;5.844;2023-05-10T11:13:56;11.77;;;9.48;;
54201;SDS011;40108;53.152;5.844;2023-05-10T11:16:28;13.38;;;10.10;;
54201;SDS011;40108;53.152;5.844;2023-05-10T11:19:10;11.10;;;8.95;;
54201;SDS011;40108;53.152;5.844;2023-05-10T11:24:29;12.65;;;11.13;;
54201;SDS011;40108;53.152;5.844;2023-05-10T11:26:55;14.30;;;11.10;;
54201;SDS011;40108;53.152;5.844;2023-05-10T11:29:22;12.75;;;11.43;;
54201;SDS011;40108;53.152;5.844;2023-05-10T11:31:49;11.75;;;9.40;;
54201;SDS011;40108;53.152;5.844;2023-05-10T11:36:52;9.95;;;8.93;;
54201;SDS011;40108;53.152;5.844;2023-05-10T11:39:20;9.52;;;8.48;;
54201;SDS011;40108;53.152;5.844;2023-05-10T11:41:50;9.25;;;7.93;;
54201;SDS011;40108;53.152;5.844;2023-05-10T11:44:16;9.68;;;7.93;;
54201;SDS011;40108;53.152;5.844;2023-05-10T11:46:41;10.20;;;8.23;;
54201;SDS011;40108;53.152;5.844;2023-05-10T11:49:07;9.65;;;8.65;;
54201;SDS011;40108;53.152;5.844;2023-05-10T11:51:34;9.45;;;8.38;;
54201;SDS011;40108;53.152;5.844;2023-05-10T11:54:07;9.68;;;8.77;;
54201;SDS011;40108;53.152;5.844;2023-05-10T11:56:34;10.00;;;9.00;;
54201;SDS011;40108;53.152;5.844;2023-05-10T11:59:02;9.75;;;8.73;;
54201;SDS011;40108;53.152;5.844;2023-05-10T12:01:29;10.13;;;9.15;;
54201;SDS011;40108;53.152;5.844;2023-05-10T12:03:56;11.38;;;10.18;;
54201;SDS011;40108;53.152;5.844;2023-05-10T12:06:26;12.98;;;10.93;;
54201;SDS011;40108;53.152;5.844;2023-05-10T12:08:53;10.60;;;9.43;;
54201;SDS011;40108;53.152;5.844;2023-05-10T12:11:19;12.30;;;9.63;;
54201;SDS011;40108;53.152;5.844;2023-05-10T12:13:49;9.77;;;8.80;;
54201;SDS011;40108;53.152;5.844;2023-05-10T12:16:16;14.77;;;10.30;;
54201;SDS011;40108;53.152;5.844;2023-05-10T12:18:42;10.45;;;9.32;;
54201;SDS011;40108;53.152;5.844;2023-05-10T12:21:11;13.05;;;9.85;;
54201;SDS011;40108;53.152;5.844;2023-05-10T12:23:37;9.13;;;7.75;;
54201;SDS011;40108;53.152;5.844;2023-05-10T12:26:04;9.45;;;7.75;;
54201;SDS011;40108;53.152;5.844;2023-05-10T12:28:31;10.70;;;8.00;;
54201;SDS011;40108;53.152;5.844;2023-05-10T12:30:59;10.20;;;8.68;;
54201;SDS011;40108;53.152;5.844;2023-05-10T12:33:25;10.13;;;7.65;;
54201;SDS011;40108;53.152;5.844;2023-05-10T12:35:51;8.90;;;7.60;;
54201;SDS011;40108;53.152;5.844;2023-05-10T12:40:58;10.57;;;8.65;;
54201;SDS011;40108;53.152;5.844;2023-05-10T12:43:25;11.95;;;8.63;;
54201;SDS011;40108;53.152;5.844;2023-05-10T12:45:51;10.70;;;8.80;;
54201;SDS011;40108;53.152;5.844;2023-05-10T12:48:16;12.00;;;9.93;;
54201;SDS011;40108;53.152;5.844;2023-05-10T12:50:42;18.63;;;11.00;;
54201;SDS011;40108;53.152;5.844;2023-05-10T12:53:08;16.33;;;10.90;;
54201;SDS011;40108;53.152;5.844;2023-05-10T12:55:34;13.88;;;10.05;;
54201;SDS011;40108;53.152;5.844;2023-05-10T12:57:59;15.88;;;11.02;;
54201;SDS011;40108;53.152;5.844;2023-05-10T13:00:25;11.93;;;9.63;;
54201;SDS011;40108;53.152;5.844;2023-05-10T13:02:51;11.45;;;9.98;;
54201;SDS011;40108;53.152;5.844;2023-05-10T13:05:17;14.30;;;9.95;;
54201;SDS011;40108;53.152;5.844;2023-05-10T13:07:42;12.07;;;9.13;;
54201;SDS011;40108;53.152;5.844;2023-05-10T13:10:09;14.15;;;9.95;;
54201;SDS011;40108;53.152;5.844;2023-05-10T13:12:35;9.75;;;8.52;;
54201;SDS011;40108;53.152;5.844;2023-05-10T13:15:01;11.45;;;9.90;;
54201;SDS011;40108;53.152;5.844;2023-05-10T13:17:28;15.70;;;10.98;;
54201;SDS011;40108;53.152;5.844;2023-05-10T13:19:53;16.48;;;9.68;;
54201;SDS011;40108;53.152;5.844;2023-05-10T13:22:20;13.88;;;9.30;;
54201;SDS011;40108;53.152;5.844;2023-05-10T13:24:45;11.68;;;8.13;;
54201;SDS011;40108;53.152;5.844;2023-05-10T13:27:11;7.47;;;6.72;;
54201;SDS011;40108;53.152;5.844;2023-05-10T13:29:37;8.68;;;7.18;;
54201;SDS011;40108;53.152;5.844;2023-05-10T13:32:02;9.88;;;7.00;;
54201;SDS011;40108;53.152;5.844;2023-05-10T13:34:28;8.75;;;6.90;;
54201;SDS011;40108;53.152;5.844;2023-05-10T13:36:54;8.77;;;6.90;;
54201;SDS011;40108;53.152;5.844;2023-05-10T13:39:21;9.00;;;6.70;;
54201;SDS011;40108;53.152;5.844;2023-05-10T13:41:47;8.98;;;6.93;;
54201;SDS011;40108;53.152;5.844;2023-05-10T13:44:13;7.78;;;6.72;;
54201;SDS011;40108;53.152;5.844;2023-05-10T13:46:40;12.88;;;8.25;;
54201;SDS011;40108;53.152;5.844;2023-05-10T13:49:08;11.43;;;10.00;;
54201;SDS011;40108;53.152;5.844;2023-05-10T13:51:34;12.88;;;11.48;;
54201;SDS011;40108;53.152;5.844;2023-05-10T13:54:03;15.80;;;12.77;;
54201;SDS011;40108;53.152;5.844;2023-05-10T13:56:30;14.75;;;12.68;;
54201;SDS011;40108;53.152;5.844;2023-05-10T13:58:56;13.75;;;12.13;;
54201;SDS011;40108;53.152;5.844;2023-05-10T14:01:23;12.57;;;11.30;;
54201;SDS011;40108;53.152;5.844;2023-05-10T14:03:49;11.32;;;10.18;;
54201;SDS011;40108;53.152;5.844;2023-05-10T14:06:15;11.20;;;10.07;;
54201;SDS011;40108;53.152;5.844;2023-05-10T14:08:40;10.60;;;9.63;;
54201;SDS011;40108;53.152;5.844;2023-05-10T14:11:06;10.57;;;9.57;;
54201;SDS011;40108;53.152;5.844;2023-05-10T14:13:32;10.43;;;9.43;;
54201;SDS011;40108;53.152;5.844;2023-05-10T14:15:58;9.32;;;8.43;;
54201;SDS011;40108;53.152;5.844;2023-05-10T14:18:26;9.82;;;8.82;;
54201;SDS011;40108;53.152;5.844;2023-05-10T14:20:52;12.32;;;7.97;;
54201;SDS011;40108;53.152;5.844;2023-05-10T14:23:18;8.18;;;7.47;;
54201;SDS011;40108;53.152;5.844;2023-05-10T14:25:48;6.93;;;6.32;;
54201;SDS011;40108;53.152;5.844;2023-05-10T14:28:15;6.90;;;6.30;;
54201;SDS011;40108;53.152;5.844;2023-05-10T14:30:42;7.75;;;6.95;;
54201;SDS011;40108;53.152;5.844;2023-05-10T14:33:08;6.50;;;5.90;;
54201;SDS011;40108;53.152;5.844;2023-05-10T14:35:35;7.97;;;7.28;;
54201;SDS011;40108;53.152;5.844;2023-05-10T14:38:01;7.10;;;6.40;;
54201;SDS011;40108;53.152;5.844;2023-05-10T14:40:28;7.85;;;7.25;;
54201;SDS011;40108;53.152;5.844;2023-05-10T14:42:54;7.68;;;6.82;;
54201;SDS011;40108;53.152;5.844;2023-05-10T14:45:21;7.03;;;5.90;;
54201;SDS011;40108;53.152;5.844;2023-05-10T14:47:48;7.53;;;6.95;;
54201;SDS011;40108;53.152;5.844;2023-05-10T14:50:14;6.63;;;6.05;;
54201;SDS011;40108;53.152;5.844;2023-05-10T14:52:41;6.53;;;6.03;;
54201;SDS011;40108;53.152;5.844;2023-05-10T14:55:07;8.00;;;6.57;;
54201;SDS011;40108;53.152;5.844;2023-05-10T14:57:33;8.00;;;7.28;;
54201;SDS011;40108;53.152;5.844;2023-05-10T14:59:59;8.68;;;7.93;;
54201;SDS011;40108;53.152;5.844;2023-05-10T15:02:25;8.70;;;8.00;;
54201;SDS011;40108;53.152;5.844;2023-05-10T15:04:51;9.07;;;7.82;;
54201;SDS011;40108;53.152;5.844;2023-05-10T15:07:17;8.60;;;7.90;;
54201;SDS011;40108;53.152;5.844;2023-05-10T15:09:43;8.75;;;7.97;;
54201;SDS011;40108;53.152;5.844;2023-05-10T15:12:09;8.60;;;7.80;;
54201;SDS011;40108;53.152;5.844;2023-05-10T15:14:35;8.45;;;7.70;;
54201;SDS011;40108;53.152;5.844;2023-05-10T15:17:01;8.15;;;7.40;;